createdAt,value
2019-05-03T00:00:18.255Z,66.77
2019-05-03T00:01:18.358Z,66.49
2019-05-03T00:02:18.045Z,64.97
2019-05-03T00:03:17.948Z,65.67
2019-05-03T00:04:17.848Z,65.38
2019-05-03T00:05:17.769Z,65.95
2019-05-03T00:06:17.656Z,65.86
2019-05-03T00:07:17.553Z,65.86
2019-05-03T00:08:17.458Z,66.61
2019-05-03T00:09:17.362Z,67.47
2019-05-03T00:10:17.278Z,66.90
2019-05-03T00:11:17.173Z,67.69
2019-05-03T00:12:17.068Z,67.85
2019-05-03T00:13:16.971Z,68.36
2019-05-03T00:14:16.872Z,68.55
2019-05-03T00:15:16.787Z,68.46
2019-05-03T00:16:16.676Z,68.46
2019-05-03T00:17:16.580Z,68.17
2019-05-03T00:18:16.484Z,68.27
2019-05-03T00:19:16.383Z,69.21
2019-05-03T00:20:16.313Z,68.65
2019-05-03T00:21:16.186Z,68.65
2019-05-03T00:22:16.089Z,69.21
2019-05-03T00:23:15.996Z,69.21
2019-05-03T00:24:15.898Z,69.50
2019-05-03T00:25:15.811Z,69.41
2019-05-03T00:26:15.699Z,69.31
2019-05-03T00:27:15.602Z,69.31
2019-05-03T00:28:15.503Z,69.21
2019-05-03T00:29:15.408Z,69.41
2019-05-03T00:30:15.310Z,70.07
2019-05-03T00:31:15.234Z,70.26
2019-05-03T00:32:15.116Z,70.17
2019-05-03T00:33:15.018Z,70.07
2019-05-03T00:34:14.920Z,69.98
2019-05-03T00:35:14.823Z,69.98
2019-05-03T00:36:14.738Z,70.17
2019-05-03T00:37:14.630Z,70.26
2019-05-03T00:38:14.528Z,70.17
2019-05-03T00:39:14.430Z,70.26
2019-05-03T00:40:14.335Z,70.17
2019-05-03T00:41:14.252Z,70.30
2019-05-03T00:42:14.142Z,70.20
2019-05-03T00:43:14.043Z,70.64
2019-05-03T00:44:13.950Z,70.83
2019-05-03T00:45:13.846Z,70.45
2019-05-03T00:46:13.768Z,70.17
2019-05-03T00:47:13.653Z,70.30
2019-05-03T00:48:13.559Z,70.97
2019-05-03T00:49:13.457Z,70.77
2019-05-03T00:50:13.360Z,70.45
2019-05-03T00:51:13.280Z,70.07
2019-05-03T00:52:13.168Z,70.45
2019-05-03T00:53:13.069Z,70.26
2019-05-03T00:54:12.971Z,71.25
2019-05-03T00:55:16.976Z,70.26
2019-05-03T00:56:13.107Z,70.58
2019-05-03T00:57:12.682Z,70.83
2019-05-03T00:58:12.611Z,70.87
2019-05-03T00:59:12.851Z,70.83
2019-05-03T01:00:12.479Z,70.68
2019-05-03T01:01:12.306Z,70.49
2019-05-03T01:02:12.195Z,70.49
2019-05-03T01:03:12.553Z,70.49
2019-05-03T01:04:12.109Z,70.74
2019-05-03T01:05:12.066Z,70.68
2019-05-03T01:06:11.823Z,70.26
2019-05-03T01:07:11.882Z,70.49
2019-05-03T01:08:12.650Z,70.97
2019-05-03T01:09:11.884Z,70.39
2019-05-03T01:10:11.831Z,70.49
2019-05-03T01:11:12.620Z,70.30
2019-05-03T01:12:12.613Z,70.97
2019-05-03T01:13:12.358Z,70.39
2019-05-03T01:14:11.989Z,70.39
2019-05-03T01:15:12.383Z,70.68
2019-05-03T01:16:11.790Z,70.68
2019-05-03T01:17:11.766Z,70.58
2019-05-03T01:18:12.310Z,71.25
2019-05-03T01:19:12.058Z,70.49
2019-05-03T01:20:11.951Z,70.39
2019-05-03T01:21:11.712Z,70.39
2019-05-03T01:22:11.899Z,70.87
2019-05-03T01:23:10.157Z,70.39
2019-05-03T01:24:12.181Z,70.49
2019-05-03T01:25:11.925Z,71.15
2019-05-03T01:26:11.763Z,70.49
2019-05-03T01:27:09.792Z,70.87
2019-05-03T01:28:09.690Z,70.49
2019-05-03T01:29:09.575Z,70.49
2019-05-03T01:30:09.483Z,70.87
2019-05-03T01:31:09.381Z,70.58
2019-05-03T01:32:11.476Z,70.49
2019-05-03T01:33:09.188Z,70.49
2019-05-03T01:34:09.092Z,70.97
2019-05-03T01:35:09.000Z,70.49
2019-05-03T01:36:08.899Z,70.87
2019-05-03T01:37:08.817Z,70.97
2019-05-03T01:38:08.705Z,70.49
2019-05-03T01:39:08.719Z,70.39
2019-05-03T01:40:08.511Z,70.68
2019-05-03T01:41:08.418Z,70.97
2019-05-03T01:42:08.332Z,70.49
2019-05-03T01:43:08.220Z,70.39
2019-05-03T01:44:08.123Z,70.58
2019-05-03T01:45:08.025Z,70.39
2019-05-03T01:46:08.035Z,70.39
2019-05-03T01:47:07.849Z,70.54
2019-05-03T01:48:07.736Z,70.49
2019-05-03T01:49:07.641Z,70.39
2019-05-03T01:50:07.547Z,70.36
2019-05-03T01:51:07.447Z,70.39
2019-05-03T01:52:07.365Z,69.82
2019-05-03T01:53:07.360Z,70.36
2019-05-03T01:54:07.157Z,70.20
2019-05-03T01:55:07.066Z,70.54
2019-05-03T01:56:06.966Z,70.07
2019-05-03T01:57:06.870Z,69.98
2019-05-03T01:58:06.785Z,69.98
2019-05-03T01:59:06.672Z,70.36
2019-05-03T02:00:06.683Z,70.17
2019-05-03T02:01:06.488Z,69.88
2019-05-03T02:02:07.427Z,70.49
2019-05-03T02:03:06.301Z,70.45
2019-05-03T02:04:06.190Z,70.07
2019-05-03T02:05:06.095Z,70.07
2019-05-03T02:06:05.999Z,69.98
2019-05-03T02:07:06.029Z,69.82
2019-05-03T02:08:05.818Z,70.10
2019-05-03T02:09:05.707Z,69.69
2019-05-03T02:10:05.610Z,70.10
2019-05-03T02:11:05.513Z,69.54
2019-05-03T02:12:05.424Z,69.69
2019-05-03T02:13:05.334Z,69.69
2019-05-03T02:14:05.329Z,69.12
2019-05-03T02:15:05.125Z,69.21
2019-05-03T02:16:05.033Z,69.21
2019-05-03T02:17:04.933Z,69.50
2019-05-03T02:18:04.850Z,69.41
2019-05-03T02:19:04.739Z,69.69
2019-05-03T02:20:04.647Z,69.44
2019-05-03T02:21:04.543Z,69.63
2019-05-03T02:22:04.453Z,69.69
2019-05-03T02:23:04.366Z,69.31
2019-05-03T02:24:04.253Z,69.54
2019-05-03T02:25:04.160Z,69.21
2019-05-03T02:26:04.061Z,69.44
2019-05-03T02:27:03.980Z,69.88
2019-05-03T02:28:03.992Z,69.35
2019-05-03T02:29:03.770Z,69.79
2019-05-03T02:30:03.675Z,69.35
2019-05-03T02:31:03.764Z,69.35
2019-05-03T02:32:03.655Z,69.41
2019-05-03T02:33:04.280Z,69.06
2019-05-03T02:34:03.691Z,69.50
2019-05-03T02:35:03.194Z,68.96
2019-05-03T02:36:03.825Z,69.35
2019-05-03T02:37:03.420Z,69.41
2019-05-03T02:38:03.612Z,68.55
2019-05-03T02:39:03.052Z,68.84
2019-05-03T02:40:04.164Z,68.84
2019-05-03T02:41:03.020Z,69.41
2019-05-03T02:42:10.202Z,68.84
2019-05-03T02:43:02.417Z,69.31
2019-05-03T02:44:02.332Z,68.93
2019-05-03T02:45:02.255Z,68.65
2019-05-03T02:46:02.145Z,68.74
2019-05-03T02:47:02.027Z,68.84
2019-05-03T02:48:01.941Z,68.65
2019-05-03T02:49:01.850Z,68.93
2019-05-03T02:50:01.805Z,68.65
2019-05-03T02:51:01.639Z,68.74
2019-05-03T02:52:01.543Z,69.02
2019-05-03T02:53:01.452Z,68.87
2019-05-03T02:54:01.366Z,69.12
2019-05-03T02:55:01.257Z,68.77
2019-05-03T02:56:13.733Z,69.21
2019-05-03T02:57:01.059Z,69.21
2019-05-03T02:58:00.968Z,68.77
2019-05-03T02:59:00.881Z,69.21
2019-05-03T03:00:00.769Z,68.77
2019-05-03T03:01:00.677Z,69.21
2019-05-03T03:02:00.575Z,68.59
2019-05-03T03:03:00.479Z,68.65
2019-05-03T03:04:00.395Z,68.68
2019-05-03T03:05:00.284Z,68.40
2019-05-03T03:06:00.191Z,68.55
2019-05-03T03:07:00.089Z,68.84
2019-05-03T03:07:59.994Z,69.25
2019-05-03T03:08:59.916Z,68.87
2019-05-03T03:09:59.813Z,69.21
2019-05-03T03:10:59.702Z,69.21
2019-05-03T03:11:59.606Z,68.59
2019-05-03T03:12:59.514Z,68.55
2019-05-03T03:13:59.431Z,68.74
2019-05-03T03:14:59.314Z,68.74
2019-05-03T03:15:59.219Z,68.55
2019-05-03T03:16:59.122Z,68.36
2019-05-03T03:17:59.027Z,68.40
2019-05-03T03:18:58.942Z,68.77
2019-05-03T03:19:58.832Z,68.65
2019-05-03T03:20:58.735Z,68.55
2019-05-03T03:21:58.636Z,68.55
2019-05-03T03:22:58.540Z,68.84
2019-05-03T03:23:58.460Z,68.55
2019-05-03T03:24:58.347Z,68.74
2019-05-03T03:25:58.254Z,68.74
2019-05-03T03:26:58.151Z,68.36
2019-05-03T03:27:58.054Z,68.36
2019-05-03T03:28:57.961Z,68.77
2019-05-03T03:29:57.881Z,68.36
2019-05-03T03:30:57.846Z,68.46
2019-05-03T03:31:58.527Z,68.49
2019-05-03T03:32:58.110Z,68.93
2019-05-03T03:33:59.295Z,68.74
2019-05-03T03:35:03.252Z,69.12
2019-05-03T03:36:07.214Z,68.27
2019-05-03T03:37:04.452Z,68.93
2019-05-03T03:37:57.092Z,68.87
2019-05-03T03:38:56.990Z,68.55
2019-05-03T03:39:56.907Z,67.98
2019-05-03T03:40:58.926Z,68.27
2019-05-03T03:41:56.698Z,68.77
2019-05-03T03:42:56.604Z,69.02
2019-05-03T03:43:56.509Z,68.55
2019-05-03T03:44:56.445Z,68.07
2019-05-03T03:45:56.310Z,68.40
2019-05-03T03:46:56.356Z,68.93
2019-05-03T03:47:56.710Z,68.27
2019-05-03T03:48:56.097Z,68.93
2019-05-03T03:49:55.937Z,68.27
2019-05-03T03:50:56.253Z,68.74
2019-05-03T03:51:56.330Z,68.27
2019-05-03T03:52:55.933Z,68.27
2019-05-03T03:53:55.767Z,68.55
2019-05-03T03:54:55.528Z,68.46
2019-05-03T03:55:56.354Z,68.74
2019-05-03T03:57:03.312Z,68.74
2019-05-03T03:57:55.708Z,68.46
2019-05-03T03:58:55.556Z,68.27
2019-05-03T03:59:56.313Z,68.84
2019-05-03T04:00:55.479Z,68.93
2019-05-03T04:01:55.175Z,68.65
2019-05-03T04:02:55.237Z,68.65
2019-05-03T04:03:56.182Z,69.12
2019-05-03T04:04:56.210Z,68.36
2019-05-03T04:05:55.536Z,68.65
2019-05-03T04:06:58.382Z,68.55
2019-05-03T04:07:56.051Z,68.27
2019-05-03T04:08:56.061Z,68.46
2019-05-03T04:09:56.232Z,67.98
2019-05-03T04:10:55.867Z,67.88
2019-05-03T04:11:56.405Z,67.50
2019-05-03T04:12:55.980Z,67.60
2019-05-03T04:13:55.989Z,67.41
2019-05-03T04:14:56.050Z,67.03
2019-05-03T04:15:55.908Z,66.36
2019-05-03T04:16:56.169Z,66.08
2019-05-03T04:17:56.419Z,65.60
2019-05-03T04:18:55.113Z,65.03
2019-05-03T04:19:55.773Z,64.46
2019-05-03T04:20:52.921Z,63.32
2019-05-03T04:21:52.809Z,62.56
2019-05-03T04:22:52.719Z,62.27
2019-05-03T04:23:55.491Z,61.90
2019-05-03T04:24:55.090Z,61.32
2019-05-03T04:25:52.433Z,61.80
2019-05-03T04:26:52.422Z,60.94
2019-05-03T04:27:52.224Z,61.23
2019-05-03T04:28:52.127Z,60.66
2019-05-03T04:29:52.031Z,60.09
2019-05-03T04:30:51.945Z,59.99
2019-05-03T04:31:51.835Z,59.90
2019-05-03T04:32:51.735Z,58.85
2019-05-03T04:33:51.741Z,57.71
2019-05-03T04:34:51.544Z,57.52
2019-05-03T04:35:51.457Z,57.04
2019-05-03T04:36:51.348Z,56.29
2019-05-03T04:37:51.248Z,55.24
2019-05-03T04:38:51.171Z,54.67
2019-05-03T04:39:51.061Z,53.72
2019-05-03T04:40:51.080Z,53.63
2019-05-03T04:41:50.862Z,53.24
2019-05-03T04:42:50.761Z,52.48
2019-05-03T04:43:50.663Z,51.53
2019-05-03T04:44:50.573Z,50.77
2019-05-03T04:45:50.483Z,49.41
2019-05-03T04:46:50.368Z,48.66
2019-05-03T04:47:50.378Z,47.34
2019-05-03T04:48:50.171Z,46.75
2019-05-03T04:49:50.078Z,46.19
2019-05-03T04:50:49.990Z,45.23
2019-05-03T04:51:49.885Z,45.23
2019-05-03T04:52:49.782Z,45.33
2019-05-03T04:53:49.684Z,44.76
2019-05-03T04:54:49.700Z,44.57
2019-05-03T04:55:49.504Z,44.19
2019-05-03T04:56:49.403Z,43.80
2019-05-03T04:57:50.506Z,43.43
2019-05-03T04:58:49.191Z,42.86
2019-05-03T04:59:49.098Z,42.95
2019-05-03T05:00:49.013Z,42.57
2019-05-03T05:01:49.018Z,41.81
2019-05-03T05:02:48.801Z,41.05
2019-05-03T05:03:48.705Z,40.67
2019-05-03T05:04:48.606Z,39.65
2019-05-03T05:05:48.525Z,39.25
2019-05-03T05:06:48.409Z,39.25
2019-05-03T05:07:48.329Z,39.25
2019-05-03T05:08:48.319Z,39.43
2019-05-03T05:09:48.117Z,38.77
2019-05-03T05:10:48.034Z,38.39
2019-05-03T05:11:47.930Z,38.68
2019-05-03T05:12:47.840Z,38.29
2019-05-03T05:13:47.755Z,38.58
2019-05-03T05:14:47.629Z,38.39
2019-05-03T05:15:47.548Z,38.39
2019-05-03T05:16:47.433Z,38.10
2019-05-03T05:17:47.334Z,38.01
2019-05-03T05:18:47.234Z,38.48
2019-05-03T05:19:47.145Z,39.25
2019-05-03T05:20:47.058Z,39.62
2019-05-03T05:21:46.946Z,39.72
2019-05-03T05:22:46.845Z,39.34
2019-05-03T05:23:46.747Z,39.62
2019-05-03T05:24:46.648Z,38.96
2019-05-03T05:25:46.565Z,38.68
2019-05-03T05:26:46.449Z,38.29
2019-05-03T05:27:49.436Z,40.10
2019-05-03T05:28:46.255Z,40.10
2019-05-03T05:29:46.158Z,41.72
2019-05-03T05:30:46.062Z,46.56
2019-05-03T05:31:45.981Z,49.58
2019-05-03T05:32:45.861Z,50.53
2019-05-03T05:33:45.765Z,50.62
2019-05-03T05:34:46.071Z,49.49
2019-05-03T05:35:45.568Z,48.82
2019-05-03T05:36:45.487Z,47.87
2019-05-03T05:37:45.370Z,48.44
2019-05-03T05:38:45.271Z,48.82
2019-05-03T05:39:45.172Z,49.10
2019-05-03T05:40:45.165Z,48.35
2019-05-03T05:41:45.100Z,48.25
2019-05-03T05:42:45.388Z,47.68
2019-05-03T05:43:44.867Z,46.83
2019-05-03T05:44:45.390Z,46.80
2019-05-03T05:45:44.981Z,46.64
2019-05-03T05:46:45.404Z,45.85
2019-05-03T05:47:44.872Z,46.35
2019-05-03T05:48:45.218Z,46.70
2019-05-03T05:49:44.464Z,46.33
2019-05-03T05:50:44.928Z,45.66
2019-05-03T05:51:44.558Z,44.53
2019-05-03T05:52:44.803Z,44.07
2019-05-03T05:53:44.739Z,43.95
2019-05-03T05:54:45.459Z,43.95
2019-05-03T05:55:44.742Z,43.86
2019-05-03T05:56:44.539Z,43.76
2019-05-03T05:57:44.958Z,43.29
2019-05-03T05:58:45.033Z,43.10
2019-05-03T05:59:45.262Z,43.19
2019-05-03T06:00:44.781Z,43.29
2019-05-03T06:01:43.024Z,43.29
2019-05-03T06:02:44.659Z,43.38
2019-05-03T06:03:44.731Z,43.38
2019-05-03T06:04:42.710Z,42.91
2019-05-03T06:05:44.598Z,43.29
2019-05-03T06:06:42.526Z,42.34
2019-05-03T06:07:44.222Z,42.82
2019-05-03T06:08:42.318Z,42.53
2019-05-03T06:09:42.236Z,42.91
2019-05-03T06:10:42.121Z,42.82
2019-05-03T06:11:42.034Z,45.95
2019-05-03T06:12:41.924Z,46.14
2019-05-03T06:13:41.823Z,46.90
2019-05-03T06:14:41.725Z,49.37
2019-05-03T06:15:41.627Z,50.41
2019-05-03T06:16:41.541Z,49.65
2019-05-03T06:17:41.434Z,49.37
2019-05-03T06:18:41.329Z,49.37
2019-05-03T06:19:41.235Z,49.27
2019-05-03T06:20:41.132Z,48.80
2019-05-03T06:21:41.047Z,48.61
2019-05-03T06:22:40.933Z,50.60
2019-05-03T06:23:40.835Z,50.41
2019-05-03T06:24:40.836Z,50.31
2019-05-03T06:25:40.637Z,51.83
2019-05-03T06:26:40.555Z,52.31
2019-05-03T06:27:40.440Z,52.22
2019-05-03T06:28:41.711Z,51.36
2019-05-03T06:29:40.242Z,51.55
2019-05-03T06:30:40.150Z,50.89
2019-05-03T06:31:40.161Z,50.79
2019-05-03T06:32:39.963Z,50.41
2019-05-03T06:33:39.849Z,51.55
2019-05-03T06:34:39.749Z,52.02
2019-05-03T06:35:39.651Z,52.97
2019-05-03T06:36:39.551Z,52.78
2019-05-03T06:37:39.471Z,53.16
2019-05-03T06:38:42.166Z,52.97
2019-05-03T06:39:39.254Z,53.73
2019-05-03T06:40:39.155Z,54.02
2019-05-03T06:41:39.059Z,54.11
2019-05-03T06:42:51.227Z,55.06
2019-05-03T06:43:39.687Z,55.44
2019-05-03T06:44:38.762Z,56.20
2019-05-03T06:45:41.041Z,57.43
2019-05-03T06:46:38.563Z,57.91
2019-05-03T06:47:40.170Z,58.00
2019-05-03T06:48:38.366Z,58.10
2019-05-03T06:49:39.341Z,57.43
2019-05-03T06:50:38.167Z,56.49
2019-05-03T06:51:39.968Z,56.96
2019-05-03T06:52:38.089Z,57.62
2019-05-03T06:53:41.806Z,58.13
2019-05-03T06:54:37.980Z,60.00
2019-05-03T06:55:39.991Z,60.85
2019-05-03T06:56:37.577Z,61.07
2019-05-03T06:57:40.174Z,61.93
2019-05-03T06:58:37.379Z,59.84
2019-05-03T06:59:37.378Z,61.26
2019-05-03T07:00:37.183Z,63.07
2019-05-03T07:01:37.085Z,62.21
2019-05-03T07:02:37.006Z,63.83
2019-05-03T07:03:36.889Z,64.40
2019-05-03T07:04:36.791Z,63.73
2019-05-03T07:05:36.690Z,63.54
2019-05-03T07:06:40.279Z,63.54
2019-05-03T07:07:36.514Z,63.07
2019-05-03T07:08:36.403Z,64.78
2019-05-03T07:09:36.299Z,64.78
2019-05-03T07:10:36.202Z,66.20
2019-05-03T07:11:36.104Z,67.28
2019-05-03T07:12:36.020Z,67.44
2019-05-03T07:13:36.009Z,67.15
2019-05-03T07:14:35.813Z,68.19
2019-05-03T07:15:35.712Z,68.67
2019-05-03T07:16:35.612Z,68.58
2019-05-03T07:17:35.517Z,68.39
2019-05-03T07:18:35.430Z,68.10
2019-05-03T07:19:35.568Z,68.19
2019-05-03T07:20:35.372Z,68.19
2019-05-03T07:21:35.463Z,67.82
2019-05-03T07:22:35.238Z,68.19
2019-05-03T07:23:35.162Z,67.44
2019-05-03T07:24:40.392Z,66.87
2019-05-03T07:25:34.731Z,66.77
2019-05-03T07:26:34.633Z,66.52
2019-05-03T07:27:35.022Z,69.05
2019-05-03T07:28:46.309Z,68.01
2019-05-03T07:29:36.481Z,68.58
2019-05-03T07:30:35.242Z,68.10
2019-05-03T07:31:35.382Z,68.29
2019-05-03T07:32:34.828Z,68.96
2019-05-03T07:33:34.743Z,68.48
2019-05-03T07:34:35.093Z,68.39
2019-05-03T07:35:35.359Z,68.77
2019-05-03T07:36:35.539Z,68.48
2019-05-03T07:37:34.847Z,68.39
2019-05-03T07:38:35.018Z,68.58
2019-05-03T07:39:34.941Z,68.77
2019-05-03T07:40:35.208Z,68.61
2019-05-03T07:41:35.395Z,67.94
2019-05-03T07:42:34.725Z,68.71
2019-05-03T07:43:32.983Z,68.71
2019-05-03T07:44:34.698Z,68.90
2019-05-03T07:45:32.776Z,68.33
2019-05-03T07:46:34.736Z,68.99
2019-05-03T07:47:34.789Z,68.80
2019-05-03T07:48:32.497Z,68.71
2019-05-03T07:49:32.384Z,68.52
2019-05-03T07:50:33.309Z,69.09
2019-05-03T07:51:32.189Z,68.33
2019-05-03T07:52:32.090Z,69.56
2019-05-03T07:53:32.027Z,68.99
2019-05-03T07:54:31.898Z,69.18
2019-05-03T07:55:31.799Z,68.86
2019-05-03T07:56:31.700Z,69.43
2019-05-03T07:57:31.601Z,68.86
2019-05-03T07:58:31.504Z,68.96
2019-05-03T07:59:31.419Z,68.86
2019-05-03T08:00:31.307Z,68.58
2019-05-03T08:01:31.209Z,68.86
2019-05-03T08:02:31.111Z,68.96
2019-05-03T08:03:31.019Z,69.43
2019-05-03T08:04:30.934Z,68.48
2019-05-03T08:05:30.820Z,69.15
2019-05-03T08:06:30.740Z,68.86
2019-05-03T08:07:30.624Z,68.58
2019-05-03T08:08:30.526Z,68.96
2019-05-03T08:09:30.444Z,68.48
2019-05-03T08:10:30.334Z,68.86
2019-05-03T08:11:30.233Z,68.67
2019-05-03T08:12:30.134Z,69.24
2019-05-03T08:13:30.047Z,68.29
2019-05-03T08:14:29.959Z,68.39
2019-05-03T08:15:29.841Z,68.29
2019-05-03T08:16:29.745Z,69.24
2019-05-03T08:17:29.647Z,68.39
2019-05-03T08:18:29.549Z,68.58
2019-05-03T08:19:29.472Z,68.39
2019-05-03T08:20:29.352Z,68.67
2019-05-03T08:21:29.255Z,68.39
2019-05-03T08:22:29.156Z,67.72
2019-05-03T08:23:30.357Z,68.64
2019-05-03T08:24:28.974Z,68.16
2019-05-03T08:25:28.869Z,67.88
2019-05-03T08:26:28.764Z,68.07
2019-05-03T08:27:28.665Z,67.88
2019-05-03T08:28:28.567Z,67.69
2019-05-03T08:29:28.484Z,67.59
2019-05-03T08:30:28.370Z,67.50
2019-05-03T08:31:28.271Z,67.02
2019-05-03T08:32:28.175Z,66.83
2019-05-03T08:33:28.076Z,66.93
2019-05-03T08:34:28.001Z,66.17
2019-05-03T08:35:27.889Z,66.36
2019-05-03T08:36:27.787Z,66.27
2019-05-03T08:37:28.082Z,66.17
2019-05-03T08:38:27.586Z,66.64
2019-05-03T08:39:27.507Z,66.46
2019-05-03T08:40:27.389Z,66.17
2019-05-03T08:41:27.294Z,66.17
2019-05-03T08:42:27.191Z,65.88
2019-05-03T08:43:27.097Z,66.93
2019-05-03T08:44:27.000Z,67.59
2019-05-03T08:45:26.915Z,67.40
2019-05-03T08:46:26.800Z,67.15
2019-05-03T08:47:26.699Z,66.77
2019-05-03T08:48:26.601Z,67.82
2019-05-03T08:49:26.506Z,67.44
2019-05-03T08:50:26.418Z,68.39
2019-05-03T08:51:26.306Z,69.71
2019-05-03T08:52:26.208Z,68.42
2019-05-03T08:53:26.117Z,68.61
2019-05-03T08:54:26.023Z,70.04
2019-05-03T08:55:25.929Z,69.85
2019-05-03T08:56:25.817Z,70.51
2019-05-03T08:57:25.719Z,72.26
2019-05-03T08:58:25.822Z,71.50
2019-05-03T08:59:29.806Z,73.97
2019-05-03T09:00:25.440Z,73.30
2019-05-03T09:01:25.378Z,73.11
2019-05-03T09:02:25.794Z,73.88
2019-05-03T09:03:25.135Z,74.07
2019-05-03T09:04:36.057Z,73.88
2019-05-03T09:05:25.155Z,74.26
2019-05-03T09:06:24.931Z,73.30
2019-05-03T09:07:25.310Z,73.74
2019-05-03T09:08:24.997Z,74.03
2019-05-03T09:09:25.486Z,73.46
2019-05-03T09:10:24.926Z,74.79
2019-05-03T09:11:31.808Z,73.18
2019-05-03T09:12:25.280Z,74.31
2019-05-03T09:13:25.165Z,73.55
2019-05-03T09:14:24.601Z,73.74
2019-05-03T09:15:24.636Z,73.93
2019-05-03T09:16:25.204Z,73.84
2019-05-03T09:17:24.700Z,73.36
2019-05-03T09:18:25.617Z,73.36
2019-05-03T09:19:25.335Z,73.65
2019-05-03T09:20:25.086Z,73.84
2019-05-03T09:21:25.297Z,73.52
2019-05-03T09:22:25.403Z,73.80
2019-05-03T09:23:25.917Z,73.42
2019-05-03T09:24:24.573Z,73.04
2019-05-03T09:25:24.757Z,72.91
2019-05-03T09:26:23.005Z,73.00
2019-05-03T09:27:24.584Z,73.19
2019-05-03T09:28:22.704Z,73.10
2019-05-03T09:29:22.602Z,72.81
2019-05-03T09:30:22.521Z,73.57
2019-05-03T09:31:24.518Z,73.67
2019-05-03T09:32:22.322Z,73.48
2019-05-03T09:33:22.310Z,73.19
2019-05-03T09:34:22.113Z,73.38
2019-05-03T09:35:30.432Z,73.29
2019-05-03T09:36:21.935Z,73.86
2019-05-03T09:37:21.825Z,73.29
2019-05-03T09:38:21.723Z,73.96
2019-05-03T09:39:21.625Z,73.86
2019-05-03T09:40:21.639Z,73.38
2019-05-03T09:41:21.442Z,73.86
2019-05-03T09:42:21.332Z,73.10
2019-05-03T09:43:21.238Z,73.96
2019-05-03T09:44:21.138Z,73.48
2019-05-03T09:45:21.039Z,73.86
2019-05-03T09:46:23.382Z,74.05
2019-05-03T09:47:20.839Z,73.10
2019-05-03T09:48:20.743Z,74.05
2019-05-03T09:49:20.643Z,73.48
2019-05-03T09:50:20.547Z,73.67
2019-05-03T09:51:20.478Z,73.19
2019-05-03T09:52:20.358Z,73.67
2019-05-03T09:53:20.359Z,73.67
2019-05-03T09:54:20.152Z,73.86
2019-05-03T09:55:20.056Z,74.05
2019-05-03T09:56:19.973Z,73.76
2019-05-03T09:57:19.859Z,73.96
2019-05-03T09:58:19.759Z,73.67
2019-05-03T09:59:19.661Z,73.67
2019-05-03T10:00:19.568Z,74.05
2019-05-03T10:01:19.482Z,73.48
2019-05-03T10:02:19.368Z,73.67
2019-05-03T10:03:19.273Z,73.48
2019-05-03T10:04:19.172Z,73.57
2019-05-03T10:05:19.072Z,73.67
2019-05-03T10:06:18.991Z,73.67
2019-05-03T10:07:18.878Z,73.67
2019-05-03T10:08:18.780Z,74.15
2019-05-03T10:09:18.680Z,73.48
2019-05-03T10:10:18.579Z,73.48
2019-05-03T10:11:25.390Z,73.76
2019-05-03T10:12:18.413Z,73.76
2019-05-03T10:13:23.412Z,73.96
2019-05-03T10:14:18.190Z,74.15
2019-05-03T10:15:18.095Z,73.96
2019-05-03T10:16:18.010Z,73.67
2019-05-03T10:17:17.895Z,73.86
2019-05-03T10:18:17.796Z,73.67
2019-05-03T10:19:17.696Z,73.57
2019-05-03T10:20:17.867Z,73.86
2019-05-03T10:21:17.514Z,73.96
2019-05-03T10:22:17.404Z,73.86
2019-05-03T10:23:17.301Z,73.67
2019-05-03T10:24:17.206Z,74.24
2019-05-03T10:25:17.106Z,74.24
2019-05-03T10:26:17.022Z,73.67
2019-05-03T10:27:16.913Z,73.57
2019-05-03T10:28:16.813Z,74.24
2019-05-03T10:29:16.712Z,73.67
2019-05-03T10:30:17.124Z,73.76
2019-05-03T10:31:16.525Z,74.05
2019-05-03T10:32:16.432Z,73.48
2019-05-03T10:33:16.965Z,73.96
2019-05-03T10:34:16.221Z,73.63
2019-05-03T10:35:16.124Z,73.76
2019-05-03T10:36:16.027Z,73.48
2019-05-03T10:37:15.973Z,73.76
2019-05-03T10:38:15.826Z,74.43
2019-05-03T10:39:15.729Z,73.96
2019-05-03T10:40:15.630Z,73.96
2019-05-03T10:41:15.535Z,73.57
2019-05-03T10:42:15.449Z,74.15
2019-05-03T10:43:15.334Z,73.96
2019-05-03T10:44:15.239Z,74.15
2019-05-03T10:45:15.287Z,74.08
2019-05-03T10:46:15.978Z,74.37
2019-05-03T10:47:15.065Z,73.99
2019-05-03T10:48:15.472Z,73.71
2019-05-03T10:49:15.305Z,73.90
2019-05-03T10:50:15.565Z,74.56
2019-05-03T10:51:15.681Z,74.47
2019-05-03T10:52:15.002Z,74.75
2019-05-03T10:53:15.381Z,75.26
2019-05-03T10:54:14.610Z,76.69
2019-05-03T10:55:15.971Z,75.64
2019-05-03T10:56:20.162Z,76.50
2019-05-03T10:57:15.781Z,75.64
2019-05-03T10:58:15.995Z,77.36
2019-05-03T10:59:13.768Z,76.97
2019-05-03T11:00:41.712Z,75.84
2019-05-03T11:01:13.574Z,77.55
2019-05-03T11:02:13.492Z,76.40
2019-05-03T11:03:13.378Z,76.69
2019-05-03T11:04:14.770Z,79.39
2019-05-03T11:05:14.612Z,78.21
2019-05-03T11:06:14.772Z,78.40
2019-05-03T11:07:14.871Z,79.11
2019-05-03T11:08:14.593Z,80.44
2019-05-03T11:09:15.076Z,79.20
2019-05-03T11:10:14.582Z,80.82
2019-05-03T11:11:12.602Z,81.01
2019-05-03T11:12:14.669Z,80.05
2019-05-03T11:13:12.417Z,82.34
2019-05-03T11:14:12.312Z,81.86
2019-05-03T11:15:12.324Z,80.44
2019-05-03T11:16:12.119Z,81.29
2019-05-03T11:17:12.026Z,81.77
2019-05-03T11:18:11.950Z,83.00
2019-05-03T11:19:11.831Z,81.96
2019-05-03T11:20:11.731Z,82.34
2019-05-03T11:21:11.765Z,83.00
2019-05-03T11:22:11.544Z,81.48
2019-05-03T11:23:11.459Z,81.86
2019-05-03T11:24:11.349Z,82.00
2019-05-03T11:25:11.252Z,85.76
2019-05-03T11:26:11.153Z,83.19
2019-05-03T11:27:11.062Z,83.86
2019-05-03T11:28:10.979Z,84.81
2019-05-03T11:29:10.868Z,84.62
2019-05-03T11:30:10.771Z,83.39
2019-05-03T11:31:10.674Z,85.95
2019-05-03T11:32:11.565Z,84.33
2019-05-03T11:33:10.496Z,83.29
2019-05-03T11:34:10.388Z,83.76
2019-05-03T11:35:11.784Z,85.86
2019-05-03T11:36:10.195Z,84.43
2019-05-03T11:37:10.104Z,84.81
2019-05-03T11:38:10.026Z,84.43
2019-05-03T11:39:09.903Z,84.81
2019-05-03T11:40:09.807Z,84.24
2019-05-03T11:41:09.712Z,84.05
2019-05-03T11:42:09.617Z,84.43
2019-05-03T11:43:09.534Z,85.10
2019-05-03T11:44:09.422Z,85.10
2019-05-03T11:45:09.328Z,85.10
2019-05-03T11:46:09.227Z,85.19
2019-05-03T11:47:09.134Z,84.39
2019-05-03T11:48:09.064Z,84.39
2019-05-03T11:49:08.940Z,84.95
2019-05-03T11:50:08.845Z,83.62
2019-05-03T11:51:08.749Z,84.39
2019-05-03T11:52:08.653Z,84.95
2019-05-03T11:53:08.571Z,84.29
2019-05-03T11:54:08.459Z,84.86
2019-05-03T11:55:11.414Z,84.95
2019-05-03T11:56:08.269Z,84.77
2019-05-03T11:57:08.168Z,84.77
2019-05-03T11:58:08.087Z,84.29
2019-05-03T11:59:07.980Z,84.01
2019-05-03T12:00:07.879Z,83.91
2019-05-03T12:01:16.071Z,84.29
2019-05-03T12:02:07.685Z,84.29
2019-05-03T12:03:07.609Z,84.20
2019-05-03T12:04:07.491Z,84.01
2019-05-03T12:05:07.396Z,84.86
2019-05-03T12:06:07.299Z,84.29
2019-05-03T12:07:07.217Z,84.39
2019-05-03T12:08:07.124Z,84.39
2019-05-03T12:09:07.008Z,85.53
2019-05-03T12:10:16.773Z,84.52
2019-05-03T12:11:06.814Z,83.95
2019-05-03T12:12:06.717Z,84.33
2019-05-03T12:13:06.635Z,85.00
2019-05-03T12:14:06.925Z,84.52
2019-05-03T12:15:06.426Z,84.72
2019-05-03T12:16:18.128Z,84.52
2019-05-03T12:17:18.009Z,85.76
2019-05-03T12:18:06.914Z,85.57
2019-05-03T12:19:16.572Z,84.33
2019-05-03T12:20:07.838Z,84.91
2019-05-03T12:21:08.620Z,84.85
2019-05-03T12:22:06.446Z,86.18
2019-05-03T12:23:06.481Z,86.76
2019-05-03T12:24:06.674Z,87.52
2019-05-03T12:25:10.114Z,86.47
2019-05-03T12:26:09.920Z,88.37
2019-05-03T12:27:05.271Z,87.52
2019-05-03T12:28:05.831Z,86.85
2019-05-03T12:29:05.091Z,87.42
2019-05-03T12:30:05.110Z,87.52
2019-05-03T12:31:05.117Z,86.66
2019-05-03T12:32:05.246Z,85.90
2019-05-03T12:33:05.995Z,86.28
2019-05-03T12:34:06.043Z,87.32
2019-05-03T12:35:06.108Z,86.66
2019-05-03T12:36:05.367Z,86.57
2019-05-03T12:37:05.159Z,87.71
2019-05-03T12:38:05.465Z,85.90
2019-05-03T12:39:05.652Z,86.32
2019-05-03T12:40:05.524Z,87.18
2019-05-03T12:41:05.581Z,87.65
2019-05-03T12:42:05.911Z,86.09
2019-05-03T12:43:05.923Z,86.28
2019-05-03T12:44:04.628Z,87.90
2019-05-03T12:45:04.581Z,87.23
2019-05-03T12:46:05.126Z,86.66
2019-05-03T12:47:05.764Z,87.04
2019-05-03T12:48:04.921Z,87.52
2019-05-03T12:49:05.249Z,87.71
2019-05-03T12:50:05.110Z,86.57
2019-05-03T12:51:05.253Z,86.57